Time;durP1;ratioP1;P1;durP2;ratioP2;P2;SDS_P1;SDS_P2;PMS_P1;PMS_P2;Temp;Humidity;BMP_temperature;BMP_pressure;BME280_temperature;BME280_humidity;BME280_pressure;Samples;Min_cycle;Max_cycle;Signal;HPM_P1;HPM_P2
2021/01/07 00:01:34;;;;;;;40.30;24.10;;;;;;;4.53;92.48;99393.58;1678124;84;22174;-65
2021/01/07 00:04:00;;;;;;;41.55;24.67;;;;;;;4.27;92.31;99392.80;1678395;83;26830;-67
2021/01/07 00:06:26;;;;;;;38.83;22.80;;;;;;;4.34;92.68;99394.88;1679601;83;24765;-66
2021/01/07 00:08:52;;;;;;;38.33;22.80;;;;;;;4.27;92.07;99397.18;1678029;84;28308;-67
2021/01/07 00:11:18;;;;;;;37.30;22.58;;;;;;;4.29;92.36;99402.62;1682516;83;21232;-67
2021/01/07 00:13:43;;;;;;;34.53;20.62;;;;;;;4.27;92.42;99399.34;1680420;84;21778;-67
2021/01/07 00:16:09;;;;;;;33.88;20.23;;;;;;;4.30;92.64;99399.06;1688232;82;26851;-67
2021/01/07 00:18:35;;;;;;;31.37;19.02;;;;;;;4.35;92.30;99398.66;1688926;82;25407;-67
2021/01/07 00:21:01;;;;;;;34.27;18.27;;;;;;;4.34;92.14;99394.39;1685870;82;28401;-65
2021/01/07 00:23:27;;;;;;;27.67;16.93;;;;;;;4.30;91.32;99404.30;1688934;82;21708;-67
2021/01/07 00:25:54;;;;;;;26.20;15.45;;;;;;;4.27;91.41;99400.64;1688862;82;22567;-68
2021/01/07 00:28:20;;;;;;;28.25;14.38;;;;;;;4.37;91.62;99398.04;1690144;82;21438;-68
2021/01/07 00:30:46;;;;;;;23.62;13.83;;;;;;;4.35;91.12;99392.59;1687798;82;21137;-68
2021/01/07 00:33:13;;;;;;;21.82;13.30;;;;;;;4.33;90.72;99402.36;1685727;82;28350;-68
2021/01/07 00:35:39;;;;;;;23.57;12.68;;;;;;;4.20;90.48;99398.20;1688264;82;21673;-69
2021/01/07 00:38:05;;;;;;;20.97;12.50;;;;;;;4.15;90.31;99399.09;1687854;82;22285;-68
2021/01/07 00:40:34;;;;;;;20.00;11.38;;;;;;;4.05;90.26;99398.23;1690898;82;21192;-68
2021/01/07 00:43:00;;;;;;;23.30;12.45;;;;;;;4.10;90.14;99392.12;1685146;82;21641;-67
2021/01/07 00:45:26;;;;;;;22.07;12.18;;;;;;;4.01;90.30;99392.91;1687806;82;21192;-65
2021/01/07 00:47:52;;;;;;;20.97;12.13;;;;;;;4.01;90.33;99390.30;1687557;82;26686;-66
2021/01/07 00:50:18;;;;;;;20.40;11.85;;;;;;;4.02;90.18;99389.35;1690563;82;21748;-66
2021/01/07 00:52:44;;;;;;;20.62;12.15;;;;;;;3.86;90.11;99395.89;1689449;82;21231;-65
2021/01/07 00:55:10;;;;;;;20.77;12.43;;;;;;;3.91;90.33;99391.09;1687034;82;25794;-66
2021/01/07 00:57:36;;;;;;;21.17;12.35;;;;;;;3.87;90.39;99396.25;1685217;82;21184;-66
2021/01/07 01:00:06;;;;;;;21.73;12.07;;;;;;;3.90;90.02;99398.60;1685308;82;21219;-67
2021/01/07 01:02:32;;;;;;;19.73;11.97;;;;;;;3.91;90.28;99396.31;1685156;82;21355;-66
2021/01/07 01:04:58;;;;;;;19.57;12.40;;;;;;;3.94;90.16;99393.44;1692354;82;26870;-66
2021/01/07 01:07:24;;;;;;;19.90;11.67;;;;;;;3.98;89.90;99394.48;1687652;82;24089;-66
2021/01/07 01:09:49;;;;;;;17.90;11.40;;;;;;;4.05;89.80;99402.97;1690352;82;28380;-67
2021/01/07 01:12:15;;;;;;;20.70;12.13;;;;;;;4.03;89.48;99401.47;1690756;82;26874;-66
2021/01/07 01:14:41;;;;;;;19.82;12.28;;;;;;;3.97;89.29;99398.08;1690741;82;21860;-66
2021/01/07 01:17:07;;;;;;;21.90;13.00;;;;;;;3.92;89.04;99405.00;1690845;83;26915;-65
2021/01/07 01:19:33;;;;;;;21.33;12.53;;;;;;;3.81;89.14;99411.14;1691492;83;25753;-65
2021/01/07 01:21:58;;;;;;;20.23;12.00;;;;;;;3.73;89.69;99405.75;1693350;83;28376;-65
2021/01/07 01:24:24;;;;;;;22.42;13.08;;;;;;;3.78;90.00;99405.69;1691063;83;27242;-66
2021/01/07 01:27:00;;;;;;;20.57;12.20;;;;;;;3.71;90.23;99402.42;1691078;83;22022;-67
2021/01/07 01:29:26;;;;;;;21.87;12.85;;;;;;;3.69;90.05;99400.44;1693100;83;21232;-66
2021/01/07 01:31:52;;;;;;;20.80;12.20;;;;;;;3.79;90.10;99415.65;1694297;83;21176;-66
2021/01/07 01:34:19;;;;;;;23.35;13.40;;;;;;;3.72;89.93;99411.44;1691026;83;28426;-66
2021/01/07 01:36:45;;;;;;;22.35;12.33;;;;;;;3.77;89.80;99412.35;1688176;83;21207;-67
2021/01/07 01:39:11;;;;;;;22.37;13.55;;;;;;;3.56;89.93;99411.91;1693999;83;22248;-66
2021/01/07 01:41:42;;;;;;;23.60;13.28;;;;;;;3.59;90.25;99412.14;1694658;83;21235;-67
2021/01/07 01:44:09;;;;;;;21.10;12.07;;;;;;;3.59;90.57;99412.97;1692420;83;21246;-66
2021/01/07 01:46:35;;;;;;;23.90;13.05;;;;;;;3.54;90.53;99416.45;1688989;83;21182;-67
2021/01/07 01:49:01;;;;;;;20.85;13.15;;;;;;;3.49;90.70;99413.38;1694221;83;26792;-67
2021/01/07 01:51:31;;;;;;;23.70;13.80;;;;;;;3.49;91.22;99414.68;1693708;83;21704;-67
2021/01/07 01:53:57;;;;;;;22.05;13.10;;;;;;;3.57;91.20;99409.66;1690270;83;21164;-67
2021/01/07 01:56:23;;;;;;;23.87;13.57;;;;;;;3.49;90.67;99408.64;1694173;83;22794;-66
2021/01/07 01:58:50;;;;;;;25.27;13.85;;;;;;;3.27;91.40;99413.53;1693057;83;21627;-67
2021/01/07 02:01:16;;;;;;;24.05;13.88;;;;;;;3.38;91.70;99419.50;1696389;83;21188;-67
2021/01/07 02:03:42;;;;;;;27.13;14.80;;;;;;;3.35;91.27;99409.31;1697055;83;21328;-67
2021/01/07 02:06:15;;;;;;;25.70;14.13;;;;;;;3.34;91.46;99405.52;1691930;83;27144;-67
2021/01/07 02:08:42;;;;;;;25.60;14.83;;;;;;;3.31;91.22;99401.86;1692289;83;21235;-67
2021/01/07 02:11:10;;;;;;;24.67;13.45;;;;;;;3.31;91.39;99405.78;1691552;83;21226;-67
2021/01/07 02:13:37;;;;;;;29.15;15.60;;;;;;;3.29;91.35;99407.21;1693382;83;21267;-67
2021/01/07 02:16:04;;;;;;;26.37;16.12;;;;;;;3.17;91.67;99410.38;1691817;82;21512;-67
2021/01/07 02:18:30;;;;;;;28.00;15.88;;;;;;;3.05;92.38;99409.60;1686973;82;21191;-67
2021/01/07 02:21:00;;;;;;;26.97;15.00;;;;;;;3.11;92.71;99408.28;1693247;82;24669;-66
2021/01/07 02:23:26;;;;;;;32.38;17.12;;;;;;;3.03;92.63;99401.54;1690243;82;21145;-66
2021/01/07 02:25:53;;;;;;;27.02;15.80;;;;;;;2.97;92.79;99405.98;1687514;82;21208;-65
2021/01/07 02:28:18;;;;;;;27.40;16.73;;;;;;;2.95;92.85;99407.88;1687025;82;21262;-65
2021/01/07 02:30:44;;;;;;;30.60;17.47;;;;;;;3.03;92.94;99400.23;1691596;82;25243;-65
2021/01/07 02:33:10;;;;;;;28.67;16.77;;;;;;;3.11;92.64;99404.82;1687766;82;23807;-66
2021/01/07 02:35:36;;;;;;;33.67;18.70;;;;;;;3.13;92.46;99401.63;1687688;82;28772;-66
2021/01/07 02:38:02;;;;;;;32.13;18.27;;;;;;;3.04;92.31;99394.08;1689301;82;27320;-65
2021/01/07 02:40:27;;;;;;;35.43;18.55;;;;;;;3.08;92.50;99401.16;1687951;82;22327;-66
2021/01/07 02:42:53;;;;;;;32.03;18.32;;;;;;;3.03;92.58;99400.23;1688694;82;26213;-66
2021/01/07 02:45:19;;;;;;;32.67;18.48;;;;;;;3.15;92.56;99399.22;1689581;82;24375;-66
2021/01/07 02:47:45;;;;;;;33.78;19.00;;;;;;;3.05;92.38;99395.74;1688596;82;28368;-66
2021/01/07 02:50:11;;;;;;;32.73;19.17;;;;;;;3.00;92.81;99390.09;1690062;82;26807;-66
2021/01/07 02:52:37;;;;;;;35.00;18.27;;;;;;;3.10;92.70;99385.74;1689090;82;21339;-66
2021/01/07 02:55:04;;;;;;;31.37;19.07;;;;;;;3.12;92.55;99381.70;1689950;82;21628;-66
2021/01/07 02:57:29;;;;;;;34.78;19.27;;;;;;;3.04;92.66;99381.85;1685964;82;21199;-66
2021/01/07 02:59:55;;;;;;;36.77;19.42;;;;;;;3.17;92.46;99384.29;1687854;82;28395;-66
2021/01/07 03:02:21;;;;;;;32.95;20.05;;;;;;;3.14;92.36;99380.63;1690691;82;26610;-65
2021/01/07 03:04:47;;;;;;;37.60;19.70;;;;;;;3.04;92.86;99391.47;1687019;82;21437;-67
2021/01/07 03:07:13;;;;;;;37.87;19.87;;;;;;;3.12;92.51;99390.84;1690056;82;25443;-66
2021/01/07 03:09:39;;;;;;;37.48;19.82;;;;;;;3.13;92.47;99394.62;1691334;82;21740;-65
2021/01/07 03:12:17;;;;;;;34.13;20.27;;;;;;;3.16;92.35;99387.84;1689251;82;28828;-66
2021/01/07 03:14:43;;;;;;;37.55;20.20;;;;;;;3.21;92.56;99392.68;1695755;82;21676;-66
2021/01/07 03:17:09;;;;;;;36.08;21.25;;;;;;;2.95;92.76;99389.62;1680551;83;21273;-66
2021/01/07 03:19:35;;;;;;;43.70;21.97;;;;;;;3.02;93.15;99390.29;1682537;83;25298;-67
2021/01/07 03:22:05;;;;;;;37.33;21.20;;;;;;;3.12;92.98;99391.66;1683420;83;22852;-66
2021/01/07 03:24:30;;;;;;;41.40;21.55;;;;;;;3.01;92.97;99396.94;1682818;82;21193;-66
2021/01/07 03:26:56;;;;;;;41.23;21.65;;;;;;;2.90;93.34;99397.81;1689959;82;21815;-66
2021/01/07 03:29:22;;;;;;;41.73;22.02;;;;;;;2.91;93.63;99398.66;1686965;82;21675;-65
2021/01/07 03:31:47;;;;;;;40.07;21.23;;;;;;;2.96;93.76;99394.70;1684818;83;26308;-66
2021/01/07 03:34:13;;;;;;;38.83;21.27;;;;;;;2.99;93.59;99390.54;1682176;83;22832;-66
2021/01/07 03:36:39;;;;;;;40.92;22.98;;;;;;;3.08;93.42;99392.03;1680519;83;28297;-66
2021/01/07 03:39:05;;;;;;;41.48;21.45;;;;;;;3.07;93.37;99390.40;1681098;83;26837;-66
2021/01/07 03:41:30;;;;;;;39.87;22.17;;;;;;;3.22;93.12;99394.34;1682198;82;21285;-66
2021/01/07 03:43:56;;;;;;;43.87;23.10;;;;;;;3.29;92.39;99392.86;1686117;82;21405;-66
2021/01/07 03:46:22;;;;;;;36.97;19.20;;;;;;;3.22;92.54;99396.47;1681951;83;23324;-66
2021/01/07 03:48:47;;;;;;;42.70;22.55;;;;;;;3.24;92.04;99385.91;1682641;83;28888;-65
2021/01/07 03:51:13;;;;;;;36.23;21.10;;;;;;;3.20;92.37;99387.10;1682317;83;26666;-65
2021/01/07 03:53:39;;;;;;;41.58;21.27;;;;;;;3.27;92.30;99388.75;1683456;83;22648;-65
2021/01/07 03:56:05;;;;;;;38.93;22.53;;;;;;;3.34;92.23;99391.17;1678896;83;24370;-66
2021/01/07 03:58:31;;;;;;;36.65;20.00;;;;;;;3.36;91.95;99390.59;1688240;82;21251;-66
2021/01/07 04:00:57;;;;;;;44.13;22.58;;;;;;;3.24;91.50;99390.63;1681334;83;28406;-65
2021/01/07 04:03:22;;;;;;;40.23;21.52;;;;;;;3.16;91.83;99398.28;1680571;83;26732;-66
2021/01/07 04:05:48;;;;;;;37.50;21.35;;;;;;;3.20;92.18;99398.84;1688320;82;22620;-65
2021/01/07 04:08:14;;;;;;;38.80;21.73;;;;;;;3.28;92.23;99382.55;1683148;83;26113;-65
2021/01/07 04:10:40;;;;;;;41.63;21.87;;;;;;;3.39;92.08;99392.94;1680474;83;24250;-65
2021/01/07 04:13:05;;;;;;;39.20;21.85;;;;;;;3.43;91.60;99396.92;1686021;82;28233;-65
2021/01/07 04:15:31;;;;;;;38.60;21.80;;;;;;;3.34;91.31;99396.39;1684271;83;26762;-65
2021/01/07 04:17:57;;;;;;;41.80;21.87;;;;;;;3.39;91.39;99395.55;1686795;82;22282;-65
2021/01/07 04:20:23;;;;;;;37.90;21.40;;;;;;;3.39;91.53;99400.77;1685424;82;26034;-65
2021/01/07 04:22:48;;;;;;;39.10;22.13;;;;;;;3.44;91.35;99403.81;1685070;82;24521;-65
2021/01/07 04:25:14;;;;;;;40.80;22.55;;;;;;;3.45;91.15;99402.86;1684739;82;28421;-65
2021/01/07 04:27:40;;;;;;;40.65;22.25;;;;;;;3.38;90.91;99399.10;1682511;82;26718;-66
2021/01/07 04:30:06;;;;;;;40.30;21.65;;;;;;;3.38;91.15;99400.41;1687383;82;21413;-65
2021/01/07 04:32:32;;;;;;;40.92;21.70;;;;;;;3.47;90.75;99406.16;1684838;82;21237;-65
2021/01/07 04:34:58;;;;;;;35.97;22.17;;;;;;;3.47;90.75;99406.16;1686693;82;21814;-65
2021/01/07 04:37:24;;;;;;;42.38;21.77;;;;;;;3.32;90.78;99403.53;1684272;82;28314;-65
2021/01/07 04:39:49;;;;;;;40.03;21.45;;;;;;;3.38;90.86;99410.84;1683487;82;27310;-64
2021/01/07 04:42:15;;;;;;;43.97;22.60;;;;;;;3.46;90.86;99407.11;1688172;82;22278;-65
2021/01/07 04:44:41;;;;;;;39.33;22.90;;;;;;;3.52;90.71;99402.68;1686977;82;25565;-65
2021/01/07 04:47:07;;;;;;;42.97;23.27;;;;;;;3.57;90.36;99403.14;1663514;84;24734;-64
2021/01/07 04:49:32;;;;;;;44.18;23.18;;;;;;;3.50;90.22;99396.77;1687400;82;28820;-64
2021/01/07 04:51:59;;;;;;;38.48;20.82;;;;;;;3.40;90.09;99394.57;1683461;83;27932;-65
2021/01/07 04:54:24;;;;;;;43.85;22.42;;;;;;;3.31;90.32;99391.42;1682384;82;21287;-65
2021/01/07 04:56:51;;;;;;;39.75;23.47;;;;;;;3.18;90.83;99398.16;1684469;82;26084;-65
2021/01/07 04:59:16;;;;;;;49.60;24.07;;;;;;;3.06;91.57;99396.07;1667244;84;21176;-65
2021/01/07 05:01:42;;;;;;;46.18;23.62;;;;;;;2.98;91.71;99397.19;1686294;82;28992;-66
2021/01/07 05:04:09;;;;;;;42.43;21.95;;;;;;;3.04;91.89;99400.59;1688597;82;26860;-66
2021/01/07 05:06:35;;;;;;;49.80;24.72;;;;;;;2.84;91.90;99396.55;1686107;82;21348;-66
2021/01/07 05:09:04;;;;;;;47.70;22.60;;;;;;;2.63;93.40;99395.69;1685551;82;25198;-66
2021/01/07 05:11:32;;;;;;;44.50;23.87;;;;;;;2.57;93.72;99400.09;1685216;82;21204;-66
2021/01/07 05:14:00;;;;;;;48.25;24.35;;;;;;;2.55;93.98;99396.30;1697527;82;22376;-66
2021/01/07 05:16:27;;;;;;;48.35;23.75;;;;;;;2.63;93.89;99391.78;1701188;82;21681;-65
2021/01/07 05:18:53;;;;;;;51.55;25.72;;;;;;;2.33;94.15;99398.47;1731858;81;21677;-66
2021/01/07 05:21:23;;;;;;;48.33;24.35;;;;;;;2.38;94.70;99397.66;1725811;81;21232;-66
2021/01/07 05:23:52;;;;;;;41.65;21.48;;;;;;;2.50;94.58;99398.43;1729698;81;21487;-66
2021/01/07 05:26:18;;;;;;;46.95;22.02;;;;;;;2.49;93.93;99398.92;1725575;81;21193;-66
2021/01/07 05:28:49;;;;;;;51.08;25.08;;;;;;;2.58;94.03;99399.97;1728741;81;21220;-65
2021/01/07 05:31:27;;;;;;;47.90;22.50;;;;;;;2.62;93.77;99399.23;1707967;81;21247;-66
2021/01/07 05:33:55;;;;;;;;;;;;;;;2.58;93.56;99394.76;1736270;81;21515;-65
2021/01/07 05:36:26;;;;;;;46.33;22.62;;;;;;;2.68;93.59;99396.14;1728203;81;20289;-66
2021/01/07 05:38:59;;;;;;;48.23;23.57;;;;;;;2.66;93.29;99400.17;1726878;81;21211;-66
2021/01/07 05:41:24;;;;;;;46.80;23.55;;;;;;;2.71;93.47;99405.01;1727432;81;21204;-66
2021/01/07 05:44:08;;;;;;;53.95;25.23;;;;;;;2.67;92.88;99408.35;1724942;81;21084;-66
2021/01/07 05:46:34;;;;;;;48.55;24.35;;;;;;;2.71;93.13;99411.53;1683827;82;21208;-67
2021/01/07 05:49:00;;;;;;;52.20;23.95;;;;;;;2.75;93.23;99419.47;1678256;83;22513;-65
2021/01/07 05:51:28;;;;;;;50.63;24.92;;;;;;;2.84;93.04;99418.72;1675762;83;28848;-66
2021/01/07 05:53:55;;;;;;;47.85;23.22;;;;;;;2.95;92.92;99420.45;1727327;81;21268;-66
2021/01/07 05:56:23;;;;;;;47.23;21.65;;;;;;;2.93;92.29;99415.81;1726896;81;21294;-65
2021/01/07 05:58:49;;;;;;;51.28;23.50;;;;;;;2.94;92.40;99414.87;1726726;81;21199;-64
2021/01/07 06:01:19;;;;;;;51.85;24.40;;;;;;;3.01;92.14;99416.50;1728722;81;21207;-65
2021/01/07 06:03:48;;;;;;;51.02;25.08;;;;;;;3.03;92.02;99418.49;1726806;81;21145;-64
2021/01/07 06:06:20;;;;;;;46.63;24.10;;;;;;;3.07;91.91;99418.60;1727646;81;21242;-65
2021/01/07 06:08:53;;;;;;;51.50;26.00;;;;;;;3.09;91.82;99414.08;1729109;81;22058;-65
2021/01/07 06:11:21;;;;;;;52.67;25.65;;;;;;;3.10;91.25;99414.44;1730019;81;21207;-65
2021/01/07 06:13:48;;;;;;;45.65;21.95;;;;;;;3.18;91.14;99419.84;1725834;81;29035;-65
2021/01/07 06:16:19;;;;;;;49.88;25.50;;;;;;;3.27;91.01;99425.28;1726802;81;21280;-65
2021/01/07 06:18:45;;;;;;;45.80;23.20;;;;;;;3.20;90.80;99421.02;1726245;81;21183;-65
2021/01/07 06:21:12;;;;;;;47.27;23.67;;;;;;;3.17;90.29;99419.52;1726349;81;22112;-65
2021/01/07 06:23:46;;;;;;;51.00;24.55;;;;;;;3.11;90.43;99426.54;1727941;81;21235;-65
2021/01/07 06:26:21;;;;;;;49.60;26.02;;;;;;;3.15;90.97;99429.23;1726185;81;21696;-64
2021/01/07 06:28:53;;;;;;;48.48;24.90;;;;;;;3.26;90.57;99432.74;1727605;81;21203;-67
2021/01/07 06:31:19;;;;;;;49.00;24.12;;;;;;;3.16;90.14;99437.41;1724619;81;21211;-65
2021/01/07 06:33:45;;;;;;;50.12;23.98;;;;;;;3.14;90.31;99439.33;1726766;81;21714;-65
2021/01/07 06:36:12;;;;;;;50.57;25.47;;;;;;;3.20;90.50;99438.83;1727862;81;24512;-65
2021/01/07 06:38:52;;;;;;;50.63;24.72;;;;;;;3.25;90.34;99438.45;1726931;81;21204;-65
2021/01/07 06:41:18;;;;;;;50.35;25.35;;;;;;;3.26;89.84;99444.48;1727983;81;21229;-65
2021/01/07 06:43:47;;;;;;;56.60;24.35;;;;;;;3.13;89.80;99445.48;1723834;81;21246;-65
2021/01/07 06:46:38;;;;;;;51.08;24.80;;;;;;;2.86;90.47;99454.61;1725634;81;22640;-66
2021/01/07 06:49:20;;;;;;;55.33;26.27;;;;;;;2.57;91.24;99450.92;1722341;81;21569;-66
2021/01/07 06:51:58;;;;;;;52.38;24.43;;;;;;;2.38;92.73;99452.83;1726580;81;21160;-66
2021/01/07 06:54:26;;;;;;;56.15;26.07;;;;;;;2.40;92.96;99455.67;1726414;81;21622;-65
2021/01/07 06:56:52;;;;;;;56.00;27.48;;;;;;;2.29;93.97;99459.61;1708446;81;21160;-66
2021/01/07 06:59:20;;;;;;;56.53;26.00;;;;;;;2.21;94.41;99456.30;1723636;80;21161;-65
2021/01/07 07:01:57;;;;;;;58.98;26.05;;;;;;;2.07;94.41;99466.48;1728734;81;21191;-65
2021/01/07 07:04:26;;;;;;;51.45;23.57;;;;;;;2.13;94.65;99464.70;1726058;81;21200;-66
2021/01/07 07:07:02;;;;;;;58.28;26.82;;;;;;;2.11;94.48;99464.45;1726180;81;21157;-66
2021/01/07 07:09:38;;;;;;;58.83;26.37;;;;;;;2.20;94.54;99468.14;1728042;80;21184;-65
2021/01/07 07:12:04;;;;;;;60.88;28.73;;;;;;;2.29;94.24;99466.12;1710350;81;22182;-66
2021/01/07 07:14:31;;;;;;;54.80;26.35;;;;;;;2.21;94.41;99464.59;1728593;80;21183;-66
2021/01/07 07:16:56;;;;;;;56.73;25.37;;;;;;;2.34;94.25;99473.09;1726528;80;21109;-65
2021/01/07 07:19:27;;;;;;;51.48;25.12;;;;;;;2.43;94.00;99480.19;1728182;80;28375;-66
2021/01/07 07:21:56;;;;;;;51.10;23.52;;;;;;;2.55;93.87;99483.62;1730704;80;21183;-66
2021/01/07 07:24:35;;;;;;;54.03;25.90;;;;;;;2.65;93.29;99490.22;1733288;80;21331;-66
2021/01/07 07:27:05;;;;;;;55.28;24.67;;;;;;;2.70;92.96;99488.07;1733704;80;21168;-66
2021/01/07 07:29:34;;;;;;;50.40;24.18;;;;;;;2.78;92.52;99493.52;1726725;80;21272;-66
2021/01/07 07:32:00;;;;;;;54.58;26.25;;;;;;;2.86;92.54;99493.73;1733902;80;21153;-67
2021/01/07 07:34:31;;;;;;;52.15;25.60;;;;;;;2.80;92.19;99496.01;1731852;80;26686;-67
2021/01/07 07:36:58;;;;;;;48.33;23.55;;;;;;;2.88;92.13;99491.81;1732073;80;22008;-66
2021/01/07 07:39:26;;;;;;;55.98;25.82;;;;;;;2.87;91.54;99489.33;1730676;80;25353;-67
2021/01/07 07:42:09;;;;;;;54.08;26.45;;;;;;;2.55;92.09;99490.58;1735124;80;21168;-67
2021/01/07 07:44:35;;;;;;;53.42;25.17;;;;;;;2.30;93.01;99488.59;1728764;81;21199;-66
2021/01/07 07:47:01;;;;;;;54.23;26.62;;;;;;;2.26;93.98;99492.41;1731400;80;26828;-66
2021/01/07 07:49:26;;;;;;;53.50;26.37;;;;;;;2.25;93.92;99495.95;1733392;80;22149;-66
2021/01/07 07:51:52;;;;;;;53.10;26.40;;;;;;;2.28;94.30;99500.92;1730544;80;24652;-67
2021/01/07 07:54:18;;;;;;;52.57;24.73;;;;;;;2.38;93.75;99499.27;1734760;80;20970;-67
2021/01/07 07:56:44;;;;;;;48.17;22.65;;;;;;;2.36;93.49;99506.84;1729486;80;28372;-67
2021/01/07 07:59:10;;;;;;;54.03;25.17;;;;;;;2.22;93.95;99504.85;1727551;80;26710;-66
2021/01/07 08:01:49;;;;;;;46.88;22.60;;;;;;;2.18;94.18;99505.20;1735331;80;22330;-66
2021/01/07 08:04:20;;;;;;;50.38;25.08;;;;;;;2.11;94.32;99507.43;1728509;80;21223;-66
2021/01/07 08:06:46;;;;;;;48.40;23.75;;;;;;;2.04;94.94;99507.08;1732456;80;21228;-64
2021/01/07 08:09:15;;;;;;;50.10;24.13;;;;;;;2.19;94.94;99509.45;1735604;80;21216;-66
2021/01/07 08:11:47;;;;;;;49.33;23.67;;;;;;;2.18;94.37;99510.41;1733185;80;21679;-66
2021/01/07 08:14:17;;;;;;;48.45;23.30;;;;;;;2.09;94.84;99509.33;1730660;80;21266;-66
2021/01/07 08:16:43;;;;;;;42.08;21.23;;;;;;;2.21;94.54;99512.78;1730365;80;21168;-66
2021/01/07 08:19:18;;;;;;;46.87;23.47;;;;;;;2.12;94.07;99519.03;1723229;81;21930;-67
2021/01/07 08:21:46;;;;;;;43.40;22.95;;;;;;;2.17;93.75;99507.44;1728404;80;21170;-66
2021/01/07 08:24:13;;;;;;;42.85;22.77;;;;;;;2.22;93.68;99511.81;1728377;80;21252;-67
2021/01/07 08:26:39;;;;;;;39.90;21.20;;;;;;;2.15;93.63;99517.50;1727497;80;21152;-66
2021/01/07 08:29:08;;;;;;;42.33;21.97;;;;;;;2.19;93.47;99515.95;1723855;81;21248;-68
2021/01/07 08:31:35;;;;;;;37.25;18.92;;;;;;;2.17;93.47;99515.26;1726278;81;21767;-67
2021/01/07 08:34:02;;;;;;;44.38;22.70;;;;;;;2.01;93.85;99515.61;1726822;81;21164;-67
2021/01/07 08:36:29;;;;;;;40.55;21.60;;;;;;;2.11;93.87;99512.19;1727148;80;21250;-66
2021/01/07 08:38:55;;;;;;;41.95;21.73;;;;;;;2.08;93.94;99513.72;1725264;80;25377;-66
2021/01/07 08:41:29;;;;;;;38.70;20.83;;;;;;;2.14;93.98;99513.25;1722430;81;22411;-66
2021/01/07 08:43:56;;;;;;;38.40;21.75;;;;;;;2.24;93.31;99509.94;1728851;81;21629;-66
2021/01/07 08:46:28;;;;;;;43.60;23.42;;;;;;;2.19;93.11;99517.27;1723283;81;26720;-67
2021/01/07 08:49:10;;;;;;;40.17;21.15;;;;;;;2.10;93.44;99526.14;1727302;80;21176;-66
2021/01/07 08:51:46;;;;;;;40.65;21.10;;;;;;;2.14;93.40;99528.03;1725149;81;21220;-66
2021/01/07 08:54:18;;;;;;;44.93;23.02;;;;;;;2.22;93.17;99524.84;1723179;80;21605;-66
2021/01/07 08:56:45;;;;;;;41.85;22.00;;;;;;;2.28;93.21;99526.97;1727293;81;21192;-66
2021/01/07 08:59:33;;;;;;;38.90;20.45;;;;;;;2.36;93.11;99524.59;1727770;81;26642;-66
2021/01/07 09:02:10;;;;;;;40.67;22.17;;;;;;;2.38;92.46;99525.33;1723663;80;21205;-65
2021/01/07 09:04:40;;;;;;;35.52;19.42;;;;;;;2.37;92.84;99521.05;1723716;81;21197;-68
2021/01/07 09:07:09;;;;;;;35.10;19.07;;;;;;;2.25;92.23;99515.48;1728984;81;21396;-67
2021/01/07 09:09:53;;;;;;;38.05;21.00;;;;;;;2.36;92.46;99521.98;1725156;81;21176;-67
2021/01/07 09:12:24;;;;;;;41.00;22.32;;;;;;;2.34;92.49;99519.50;1724941;81;21587;-65
2021/01/07 09:15:21;;;;;;;36.25;19.70;;;;;;;2.39;92.58;99520.45;1723998;80;21176;-68
2021/01/07 09:17:48;;;;;;;37.28;19.52;;;;;;;2.40;92.35;99510.39;1714609;80;21239;-67
2021/01/07 09:20:17;;;;;;;38.80;21.65;;;;;;;2.38;92.44;99514.91;1728550;80;21251;-66
2021/01/07 09:22:43;;;;;;;46.95;23.45;;;;;;;2.39;92.59;99515.23;1724527;80;21203;-67
2021/01/07 09:25:15;;;;;;;42.03;23.38;;;;;;;2.31;92.79;99517.14;1731534;80;28402;-66
2021/01/07 09:27:38;;;;;;;42.23;22.67;;;;;;;2.29;93.04;99521.64;1729757;80;21642;-67
2021/01/07 09:30:05;;;;;;;47.47;23.60;;;;;;;2.22;93.51;99524.39;1734073;80;22689;-66
2021/01/07 09:32:31;;;;;;;44.80;23.40;;;;;;;2.19;93.54;99518.11;1730262;80;21625;-66
2021/01/07 09:34:57;;;;;;;41.60;22.13;;;;;;;2.35;93.51;99521.66;1735963;80;24709;-66
2021/01/07 09:37:23;;;;;;;40.40;20.72;;;;;;;2.32;93.08;99520.59;1734067;80;27529;-67
2021/01/07 09:39:51;;;;;;;45.67;24.32;;;;;;;2.30;93.12;99514.65;1734497;80;26860;-65
2021/01/07 09:42:19;;;;;;;41.88;21.87;;;;;;;2.20;93.53;99513.72;1727682;80;21672;-66
2021/01/07 09:44:45;;;;;;;43.55;23.32;;;;;;;2.25;93.31;99507.22;1731977;80;21232;-67
2021/01/07 09:47:11;;;;;;;42.58;22.40;;;;;;;2.14;93.58;99506.74;1733449;80;21720;-67
2021/01/07 09:49:37;;;;;;;42.95;23.27;;;;;;;1.97;94.13;99495.02;1735980;80;28323;-67
2021/01/07 09:52:04;;;;;;;39.83;22.00;;;;;;;2.11;94.07;99489.20;1730582;80;21192;-66
2021/01/07 09:54:29;;;;;;;43.20;24.00;;;;;;;2.14;93.86;99490.27;1731534;80;22243;-67
2021/01/07 09:56:56;;;;;;;44.23;23.40;;;;;;;2.14;94.18;99488.96;1729634;80;24290;-65
2021/01/07 09:59:23;;;;;;;45.23;21.65;;;;;;;2.25;93.92;99488.13;1726862;80;21191;-66
2021/01/07 10:01:59;;;;;;;45.08;22.93;;;;;;;2.29;93.58;99490.87;1730693;80;21268;-66
2021/01/07 10:04:24;;;;;;;44.38;23.25;;;;;;;2.27;92.71;99484.47;1731288;80;21196;-66
2021/01/07 10:06:50;;;;;;;43.60;23.07;;;;;;;2.24;93.37;99490.41;1732554;80;22404;-65
2021/01/07 10:09:16;;;;;;;40.83;21.83;;;;;;;2.34;93.01;99490.02;1735185;80;25392;-65
2021/01/07 10:11:42;;;;;;;40.40;21.33;;;;;;;2.21;92.45;99497.16;1736006;80;21652;-66
2021/01/07 10:14:08;;;;;;;40.17;22.30;;;;;;;2.13;92.30;99490.75;1731562;80;27845;-66
2021/01/07 10:16:34;;;;;;;35.52;19.90;;;;;;;2.20;92.81;99495.48;1735600;80;27434;-65
2021/01/07 10:18:59;;;;;;;41.35;22.10;;;;;;;2.32;92.65;99499.75;1736726;80;22214;-66
2021/01/07 10:21:26;;;;;;;45.03;22.33;;;;;;;2.21;92.59;99499.76;1704303;82;25239;-65
2021/01/07 10:23:52;;;;;;;37.48;20.05;;;;;;;2.32;92.42;99504.95;1728059;81;21191;-67
2021/01/07 10:26:20;;;;;;;43.13;21.70;;;;;;;2.18;91.92;99501.30;1686111;82;21222;-66
2021/01/07 10:28:47;;;;;;;36.42;20.20;;;;;;;2.18;92.39;99498.70;1690818;82;21596;-65
2021/01/07 10:31:17;;;;;;;40.58;21.35;;;;;;;2.15;92.07;99499.27;1726889;80;21200;-65
2021/01/07 10:33:44;;;;;;;33.10;18.10;;;;;;;2.29;92.10;99499.98;1709831;80;21179;-66
2021/01/07 10:36:11;;;;;;;40.12;20.43;;;;;;;2.31;91.53;99491.56;1722355;82;21152;-64
2021/01/07 10:38:37;;;;;;;31.15;18.75;;;;;;;2.29;91.34;99496.08;1706920;82;21219;-65
2021/01/07 10:41:05;;;;;;;34.67;18.10;;;;;;;2.26;90.36;99496.31;1725843;81;22919;-66
2021/01/07 10:43:31;;;;;;;;;;;;;;;2.23;90.83;99497.86;1725451;80;21196;-64
2021/01/07 10:45:57;;;;;;;33.25;17.67;;;;;;;2.20;90.38;99505.91;1724621;80;20357;-67
2021/01/07 10:48:23;;;;;;;34.67;17.73;;;;;;;2.05;90.79;99497.03;1725340;80;21749;-67
2021/01/07 10:50:52;;;;;;;35.75;18.15;;;;;;;2.11;90.77;99493.11;1727702;81;21216;-65
2021/01/07 10:53:45;;;;;;;36.35;19.27;;;;;;;2.15;90.52;99499.27;1724646;81;21220;-66
2021/01/07 10:56:28;;;;;;;35.28;18.10;;;;;;;2.15;90.87;99505.77;1704478;81;22689;-64
2021/01/07 10:59:29;;;;;;;37.00;18.92;;;;;;;2.20;90.98;99496.30;1703433;82;21212;-65
2021/01/07 11:02:33;;;;;;;40.40;20.32;;;;;;;2.33;91.15;99499.63;1706873;82;21618;-65
2021/01/07 11:05:13;;;;;;;38.45;19.82;;;;;;;2.32;91.30;99504.95;1726455;81;21618;-66
2021/01/07 11:08:21;;;;;;;40.15;19.85;;;;;;;2.33;90.84;99501.38;1723276;80;21223;-64
2021/01/07 11:10:52;;;;;;;40.60;21.35;;;;;;;2.36;90.67;99495.11;1722643;81;22027;-65
2021/01/07 11:13:23;;;;;;;39.98;20.35;;;;;;;2.30;90.82;99504.23;1726660;80;21288;-65
2021/01/07 11:15:55;;;;;;;41.00;20.55;;;;;;;2.23;91.00;99504.37;1726812;80;21218;-65
2021/01/07 11:18:30;;;;;;;38.33;19.87;;;;;;;2.20;91.06;99499.39;1723612;80;21161;-65
2021/01/07 11:21:03;;;;;;;39.83;19.27;;;;;;;2.26;91.11;99504.13;1725175;81;21133;-64
2021/01/07 11:23:29;;;;;;;37.48;18.57;;;;;;;2.21;90.92;99505.78;1727245;81;21275;-66
2021/01/07 11:25:54;;;;;;;39.60;20.27;;;;;;;2.16;91.22;99500.11;1729776;80;24469;-65
2021/01/07 11:28:20;;;;;;;39.43;19.53;;;;;;;2.21;91.52;99497.16;1719283;80;27772;-66
2021/01/07 11:30:49;;;;;;;39.73;20.90;;;;;;;2.24;91.22;99499.52;1703724;82;28407;-66
2021/01/07 11:33:16;;;;;;;41.37;20.40;;;;;;;2.23;91.32;99492.64;1701025;82;21214;-66